Time;durP1;ratioP1;P1;durP2;ratioP2;P2;SDS_P1;SDS_P2;PMS_P1;PMS_P2;Temp;Humidity;BMP_temperature;BMP_pressure;BME280_temperature;BME280_humidity;BME280_pressure;Samples;Min_cycle;Max_cycle;Signal;HPM_P1;HPM_P2
2022/10/03 00:02:27;;;;;;;0.50;0.40;;;10.10;99.90;;;;;;4989141;28;20227;-76
2022/10/03 00:05:09;;;;;;;0.50;0.40;;;10.10;99.90;;;;;;4989199;28;20289;-76
2022/10/03 00:07:56;;;;;;;0.60;0.60;;;10.00;99.90;;;;;;4989499;28;20203;-76
2022/10/03 00:10:33;;;;;;;0.50;0.40;;;10.00;99.90;;;;;;4989271;28;20229;-76
2022/10/03 00:13:10;;;;;;;0.50;0.40;;;10.00;99.90;;;;;;4988973;28;20754;-76
2022/10/03 00:15:45;;;;;;;0.50;0.40;;;9.90;99.90;;;;;;4989239;28;20197;-76
2022/10/03 00:18:30;;;;;;;0.50;0.40;;;9.90;99.90;;;;;;4989322;28;20665;-76
2022/10/03 00:21:14;;;;;;;0.50;0.40;;;9.90;99.90;;;;;;5042067;28;20221;-76
2022/10/03 00:23:50;;;;;;;3.13;2.65;;;9.90;99.90;;;;;;5051016;28;20185;-76
2022/10/03 00:26:30;;;;;;;0.50;0.40;;;9.90;99.90;;;;;;5050355;28;20205;-76
2022/10/03 00:29:28;;;;;;;1.90;0.93;;;9.90;99.90;;;;;;5054420;28;20225;-76
2022/10/03 00:32:04;;;;;;;0.50;0.40;;;10.00;99.90;;;;;;5054933;28;20565;-76
2022/10/03 00:34:46;;;;;;;0.50;0.40;;;10.00;99.90;;;;;;5054488;28;20185;-76
2022/10/03 00:37:24;;;;;;;0.88;0.88;;;9.90;99.90;;;;;;5054138;28;20194;-77
2022/10/03 00:40:18;;;;;;;0.57;0.57;;;9.90;99.90;;;;;;5054140;28;20702;-77
2022/10/03 00:43:18;;;;;;;0.50;0.40;;;9.90;99.90;;;;;;5054598;28;20222;-76
2022/10/03 00:46:09;;;;;;;0.50;0.40;;;9.90;99.90;;;;;;5054091;28;20675;-76
2022/10/03 00:49:10;;;;;;;0.50;0.40;;;9.90;99.90;;;;;;5054121;28;20201;-76
2022/10/03 00:52:01;;;;;;;0.50;0.40;;;9.90;99.90;;;;;;5054260;28;20221;-77
2022/10/03 00:54:51;;;;;;;0.60;0.50;;;9.80;99.90;;;;;;5054220;28;20191;-76
2022/10/03 00:57:59;;;;;;;0.60;0.60;;;9.80;99.90;;;;;;5054070;28;20715;-76
2022/10/03 01:00:29;;;;;;;0.63;0.63;;;9.80;99.90;;;;;;5053912;28;20591;-76
2022/10/03 01:03:20;;;;;;;0.60;0.57;;;9.80;99.90;;;;;;5054359;28;20229;-76
2022/10/03 01:05:57;;;;;;;0.50;0.40;;;9.80;99.90;;;;;;5053652;28;20235;-76
2022/10/03 01:08:43;;;;;;;0.50;0.40;;;9.80;99.90;;;;;;5053794;28;20288;-76
2022/10/03 01:11:22;;;;;;;0.50;0.40;;;9.80;99.90;;;;;;5053683;28;20221;-75
2022/10/03 01:14:02;;;;;;;3.92;2.45;;;9.80;99.90;;;;;;5054382;28;20183;-76
2022/10/03 01:16:39;;;;;;;2.35;1.30;;;9.80;99.90;;;;;;5053621;28;20216;-76
2022/10/03 01:19:28;;;;;;;0.50;0.50;;;9.90;99.90;;;;;;5053588;28;20205;-76
2022/10/03 01:22:11;;;;;;;0.50;0.50;;;9.90;99.90;;;;;;5053683;28;20746;-76
2022/10/03 01:24:51;;;;;;;0.50;0.50;;;9.90;99.90;;;;;;5053684;28;20182;-77
2022/10/03 01:27:28;;;;;;;1.13;1.02;;;9.90;99.90;;;;;;5053491;28;20682;-76
2022/10/03 01:32:52;;;;;;;1.02;0.50;;;9.80;99.90;;;;;;5053835;28;20678;-75
2022/10/03 01:35:31;;;;;;;0.50;0.40;;;9.70;99.90;;;;;;5052641;28;20192;-76
2022/10/03 01:38:09;;;;;;;1.30;1.20;;;9.70;99.90;;;;;;5053267;28;20187;-76
2022/10/03 01:40:42;;;;;;;1.17;0.80;;;9.70;99.90;;;;;;5053515;28;20220;-76
2022/10/03 01:43:19;;;;;;;0.50;0.40;;;9.70;99.90;;;;;;5053265;28;20638;-76
2022/10/03 01:45:59;;;;;;;0.50;0.40;;;9.70;99.90;;;;;;5062392;28;20210;-76
2022/10/03 01:48:33;;;;;;;0.50;0.40;;;9.70;99.90;;;;;;5073095;28;20220;-76
2022/10/03 01:51:07;;;;;;;0.50;0.50;;;9.60;99.90;;;;;;5073153;28;20215;-76
2022/10/03 01:53:46;;;;;;;0.95;0.73;;;9.60;99.90;;;;;;5073353;28;20185;-76
2022/10/03 01:56:21;;;;;;;0.50;0.40;;;9.60;99.90;;;;;;5072641;28;20197;-76
2022/10/03 01:58:58;;;;;;;0.50;0.40;;;9.50;99.90;;;;;;5073404;28;20180;-77
2022/10/03 02:01:34;;;;;;;0.95;0.85;;;9.50;99.90;;;;;;5073119;28;20686;-76
2022/10/03 02:04:11;;;;;;;1.15;0.60;;;9.50;99.90;;;;;;5072471;28;20205;-76
2022/10/03 02:06:48;;;;;;;0.50;0.40;;;9.50;99.90;;;;;;5073224;28;20269;-76
2022/10/03 02:09:27;;;;;;;0.60;0.50;;;9.50;99.90;;;;;;5072788;28;20244;-76
2022/10/03 02:12:14;;;;;;;0.50;0.40;;;9.50;99.90;;;;;;5072607;28;20383;-76
2022/10/03 02:14:49;;;;;;;0.73;0.73;;;9.50;99.90;;;;;;5072528;28;20199;-77
2022/10/03 02:17:29;;;;;;;0.50;0.40;;;9.50;99.90;;;;;;5072665;28;20204;-76
2022/10/03 02:20:04;;;;;;;0.50;0.40;;;9.50;99.90;;;;;;5072903;28;20185;-76
2022/10/03 02:22:34;;;;;;;0.50;0.50;;;9.40;99.90;;;;;;5072592;28;20251;-76
2022/10/03 02:25:30;;;;;;;0.50;0.40;;;9.40;99.90;;;;;;5072455;28;20188;-76
2022/10/03 02:28:34;;;;;;;0.50;0.40;;;9.50;99.90;;;;;;5072389;28;20576;-76
2022/10/03 02:31:21;;;;;;;0.50;0.40;;;9.50;99.90;;;;;;5072207;28;20307;-76
2022/10/03 02:34:21;;;;;;;0.50;0.40;;;9.50;99.90;;;;;;5072495;28;20185;-76
2022/10/03 02:37:21;;;;;;;0.50;0.40;;;9.40;99.90;;;;;;5064450;28;20575;-76
2022/10/03 02:40:33;;;;;;;0.50;0.50;;;9.40;99.90;;;;;;5034912;28;20202;-76
2022/10/03 02:43:26;;;;;;;0.98;0.70;;;9.50;99.90;;;;;;5071951;28;20196;-76
2022/10/03 02:46:26;;;;;;;0.60;0.50;;;9.40;99.90;;;;;;5068034;28;20201;-76
2022/10/03 02:49:33;;;;;;;0.50;0.40;;;9.40;99.90;;;;;;5072287;28;20204;-76
2022/10/03 02:52:32;;;;;;;0.65;0.65;;;9.40;99.90;;;;;;5054537;28;20220;-76
2022/10/03 02:55:27;;;;;;;0.50;0.40;;;9.40;99.90;;;;;;5071711;28;20197;-76
2022/10/03 02:58:20;;;;;;;2.03;1.60;;;9.40;99.90;;;;;;5071827;28;20189;-76
2022/10/03 03:01:17;;;;;;;1.13;0.85;;;9.40;99.90;;;;;;5071822;28;20737;-77
2022/10/03 03:04:13;;;;;;;1.58;1.50;;;9.30;99.90;;;;;;5071694;28;20292;-76
2022/10/03 03:07:02;;;;;;;1.52;1.50;;;9.30;99.90;;;;;;5071625;28;20204;-76
2022/10/03 03:09:52;;;;;;;0.60;0.47;;;9.30;99.90;;;;;;5071901;28;20207;-76
2022/10/03 03:13:07;;;;;;;0.50;0.50;;;9.20;99.90;;;;;;5071638;28;20721;-76
2022/10/03 03:16:14;;;;;;;4.00;0.88;;;9.30;99.90;;;;;;4951076;28;20242;-76
2022/10/03 03:18:48;;;;;;;0.50;0.40;;;9.30;99.90;;;;;;5071183;28;20696;-76
2022/10/03 03:21:26;;;;;;;1.33;1.00;;;9.20;99.90;;;;;;5071600;28;20238;-76
2022/10/03 03:24:22;;;;;;;0.60;0.50;;;9.20;99.90;;;;;;5071549;28;20175;-74
2022/10/03 03:27:11;;;;;;;0.50;0.40;;;9.20;99.90;;;;;;5072420;28;20208;-78
2022/10/03 03:29:46;;;;;;;0.50;0.50;;;9.20;99.90;;;;;;5071011;28;20638;-77
2022/10/03 03:32:27;;;;;;;0.50;0.40;;;9.20;99.90;;;;;;5071136;28;20221;-78
2022/10/03 03:35:05;;;;;;;1.35;1.35;;;9.20;99.90;;;;;;5070778;28;20206;-80
2022/10/03 03:37:43;;;;;;;0.50;0.40;;;9.30;99.90;;;;;;5070835;28;20280;-78
2022/10/03 03:40:23;;;;;;;3.63;1.30;;;9.20;99.90;;;;;;5070861;28;20206;-79
2022/10/03 03:43:10;;;;;;;0.50;0.40;;;9.20;99.90;;;;;;5070662;28;20197;-80
2022/10/03 03:45:46;;;;;;;0.50;0.40;;;9.20;99.90;;;;;;5070966;28;20559;-78
2022/10/03 03:48:37;;;;;;;0.50;0.40;;;9.20;99.90;;;;;;5071184;28;20179;-78
2022/10/03 03:51:17;;;;;;;1.23;1.23;;;9.20;99.90;;;;;;5070871;28;20221;-78
2022/10/03 03:54:10;;;;;;;0.50;0.40;;;9.20;99.90;;;;;;5070569;28;20684;-80
2022/10/03 03:57:05;;;;;;;0.95;0.95;;;9.10;99.90;;;;;;5033631;28;20197;-77
2022/10/03 03:59:49;;;;;;;0.50;0.50;;;9.20;99.90;;;;;;5070811;28;20208;-77
2022/10/03 04:02:27;;;;;;;3.33;0.77;;;9.20;99.90;;;;;;5071537;28;20307;-79
2022/10/03 04:05:07;;;;;;;1.05;0.70;;;9.20;99.90;;;;;;5074589;28;20184;-79
2022/10/03 04:07:50;;;;;;;1.05;0.95;;;9.20;99.90;;;;;;5075236;28;20179;-77
2022/10/03 04:10:37;;;;;;;2.20;1.98;;;9.20;99.90;;;;;;5074501;28;20190;-77
2022/10/03 04:13:30;;;;;;;3.25;1.52;;;9.20;99.90;;;;;;5075149;28;20216;-77
2022/10/03 04:18:56;;;;;;;1.35;1.25;;;9.20;99.90;;;;;;5074787;28;20204;-77
2022/10/03 04:19:16;;;;;;;0.50;0.40;;;9.20;99.90;;;;;;5074159;28;20204;-78
2022/10/03 04:22:20;;;;;;;0.55;0.55;;;9.20;99.90;;;;;;5074441;28;20207;-78
2022/10/03 04:25:07;;;;;;;1.33;1.23;;;9.20;99.90;;;;;;5022333;28;20586;-78
2022/10/03 04:28:00;;;;;;;6.38;2.38;;;9.10;99.90;;;;;;5074050;28;20210;-77
2022/10/03 04:30:37;;;;;;;0.50;0.50;;;9.20;99.90;;;;;;5074450;28;20193;-77
2022/10/03 04:33:14;;;;;;;0.50;0.50;;;9.20;99.90;;;;;;5074524;28;20216;-77
2022/10/03 04:36:10;;;;;;;2.03;1.83;;;9.20;99.90;;;;;;5073434;28;20206;-77
2022/10/03 04:38:49;;;;;;;1.50;1.13;;;9.20;99.90;;;;;;5074371;28;20707;-76
2022/10/03 04:41:26;;;;;;;1.15;0.63;;;9.30;99.90;;;;;;5074414;28;20217;-77
2022/10/03 04:44:02;;;;;;;5.30;2.47;;;9.20;99.90;;;;;;5074262;28;20190;-76
2022/10/03 04:46:35;;;;;;;1.67;1.58;;;9.20;99.90;;;;;;5074624;28;20631;-75
2022/10/03 04:49:11;;;;;;;0.77;0.77;;;9.30;99.90;;;;;;5074261;28;20282;-76
2022/10/03 04:51:50;;;;;;;7.32;2.10;;;9.30;99.90;;;;;;5074563;28;20583;-77
2022/10/03 04:54:28;;;;;;;1.90;1.23;;;9.30;99.90;;;;;;5073829;28;20209;-77
2022/10/03 04:57:01;;;;;;;0.63;0.55;;;9.40;99.90;;;;;;5074429;28;20208;-76
2022/10/03 04:59:45;;;;;;;1.77;1.15;;;9.50;99.90;;;;;;5074925;28;20279;-76
2022/10/03 05:02:25;;;;;;;2.97;1.50;;;9.50;99.90;;;;;;5074703;28;20220;-74
2022/10/03 05:05:14;;;;;;;1.80;1.70;;;9.50;99.90;;;;;;5074320;28;20253;-77
2022/10/03 05:07:50;;;;;;;1.15;0.73;;;9.50;99.90;;;;;;5074780;28;20218;-77
2022/10/03 05:10:37;;;;;;;1.92;1.77;;;9.50;99.90;;;;;;5073607;28;20204;-78
2022/10/03 05:13:15;;;;;;;0.50;0.40;;;9.50;99.90;;;;;;5073994;28;20222;-78
2022/10/03 05:15:51;;;;;;;5.70;1.58;;;9.50;99.90;;;;;;5073896;28;20232;-76
2022/10/03 05:18:24;;;;;;;0.60;0.50;;;9.50;99.90;;;;;;5074100;28;20566;-78
2022/10/03 05:20:57;;;;;;;1.15;1.10;;;9.50;99.90;;;;;;5073570;28;20212;-78
2022/10/03 05:23:34;;;;;;;0.50;0.50;;;9.40;99.90;;;;;;5074225;28;20189;-77
2022/10/03 05:26:11;;;;;;;0.70;0.70;;;9.40;99.90;;;;;;5073774;28;20184;-77
2022/10/03 05:28:45;;;;;;;0.50;0.50;;;9.40;99.90;;;;;;5074157;28;20196;-77
2022/10/03 05:31:28;;;;;;;0.90;0.90;;;9.40;99.90;;;;;;5073515;28;20217;-77
2022/10/03 05:34:10;;;;;;;2.35;2.25;;;9.30;99.90;;;;;;5058846;28;20276;-77
2022/10/03 05:36:54;;;;;;;0.75;0.75;;;9.30;99.90;;;;;;5052980;28;20243;-78
2022/10/03 05:39:28;;;;;;;0.80;0.80;;;9.30;99.90;;;;;;5053310;28;20207;-79
2022/10/03 05:42:14;;;;;;;0.50;0.40;;;9.40;99.90;;;;;;5053491;28;20561;-77
2022/10/03 05:44:45;;;;;;;0.75;0.75;;;9.50;99.90;;;;;;5052476;28;20666;-78
2022/10/03 05:47:44;;;;;;;0.50;0.50;;;9.50;99.90;;;;;;5053030;28;20734;-77
2022/10/03 05:50:56;;;;;;;0.50;0.40;;;9.60;99.90;;;;;;5053102;28;20196;-78
2022/10/03 05:53:56;;;;;;;5.28;2.50;;;9.60;99.90;;;;;;5053394;28;20225;-78
2022/10/03 05:56:39;;;;;;;3.25;0.77;;;9.70;99.90;;;;;;5019324;28;20203;-77
2022/10/03 05:59:27;;;;;;;2.33;2.13;;;9.80;99.90;;;;;;5052999;28;20568;-77
2022/10/03 06:02:23;;;;;;;0.80;0.80;;;9.80;99.90;;;;;;5053161;28;20218;-77
2022/10/03 06:05:13;;;;;;;0.50;0.40;;;9.80;99.90;;;;;;5052109;28;20201;-77
2022/10/03 06:07:52;;;;;;;2.35;1.73;;;9.80;99.90;;;;;;5052762;28;20188;-77
2022/10/03 06:10:43;;;;;;;0.60;0.60;;;9.90;99.90;;;;;;5052802;28;20194;-78
2022/10/03 06:13:20;;;;;;;1.48;1.38;;;9.90;99.90;;;;;;5053001;28;20333;-78
2022/10/03 06:16:08;;;;;;;1.02;0.70;;;10.00;99.90;;;;;;5052396;28;20181;-77
2022/10/03 06:19:05;;;;;;;2.90;1.88;;;10.00;99.90;;;;;;5052676;28;20196;-77
2022/10/03 06:22:07;;;;;;;0.50;0.40;;;10.00;99.90;;;;;;5052510;28;20227;-77
2022/10/03 06:25:13;;;;;;;0.88;0.80;;;10.00;99.90;;;;;;5051232;28;20192;-78
2022/10/03 06:28:13;;;;;;;2.00;0.73;;;10.00;99.90;;;;;;5052084;28;20295;-77
2022/10/03 06:30:57;;;;;;;0.88;0.88;;;10.10;99.90;;;;;;5052103;28;20228;-76
2022/10/03 06:34:11;;;;;;;1.08;0.98;;;10.10;99.90;;;;;;5051625;28;20225;-78
2022/10/03 06:37:02;;;;;;;1.00;0.88;;;10.10;99.90;;;;;;5045179;28;20675;-77
2022/10/03 06:40:01;;;;;;;4.30;1.25;;;10.10;99.90;;;;;;5049146;28;20194;-80
2022/10/03 06:42:46;;;;;;;1.02;1.02;;;10.10;99.90;;;;;;5053317;28;20210;-77
2022/10/03 06:45:53;;;;;;;0.50;0.50;;;10.10;99.90;;;;;;5052350;28;20188;-78
2022/10/03 06:48:40;;;;;;;0.50;0.40;;;10.00;99.90;;;;;;5051675;28;20217;-75
2022/10/03 06:51:40;;;;;;;6.07;5.53;;;10.20;99.90;;;;;;5051523;28;20221;-81
2022/10/03 06:54:48;;;;;;;0.50;0.40;;;10.70;99.90;;;;;;5046970;28;20757;-77
2022/10/03 06:57:34;;;;;;;1.27;1.17;;;11.00;99.90;;;;;;4975795;28;20202;-77
2022/10/03 07:00:14;;;;;;;3.65;1.17;;;11.00;99.90;;;;;;5050642;28;20192;-78
2022/10/03 07:03:17;;;;;;;0.50;0.50;;;11.10;99.90;;;;;;5050489;28;20182;-76
2022/10/03 07:06:08;;;;;;;1.25;1.13;;;11.30;99.90;;;;;;5049968;28;20195;-75
2022/10/03 07:09:14;;;;;;;1.27;1.20;;;11.50;99.90;;;;;;5051435;28;20252;-78
2022/10/03 07:12:20;;;;;;;2.25;2.05;;;11.70;99.90;;;;;;5051452;28;20218;-77
2022/10/03 07:15:21;;;;;;;0.60;0.60;;;11.80;99.90;;;;;;5051170;28;20568;-77
2022/10/03 07:18:06;;;;;;;0.50;0.40;;;11.90;99.90;;;;;;4982207;28;20230;-76
2022/10/03 07:21:00;;;;;;;0.50;0.50;;;11.90;99.90;;;;;;5051622;28;20770;-77
2022/10/03 07:23:46;;;;;;;1.80;1.80;;;11.90;99.90;;;;;;5051413;28;20277;-78
2022/10/03 07:26:40;;;;;;;3.43;3.13;;;11.80;99.90;;;;;;5050973;28;20209;-78
2022/10/03 07:29:36;;;;;;;0.50;0.40;;;11.80;99.90;;;;;;5051315;28;20441;-77
2022/10/03 07:32:31;;;;;;;0.50;0.40;;;12.00;99.90;;;;;;5051353;28;20986;-77
2022/10/03 07:38:58;;;;;;;1.33;1.23;;;13.10;99.90;;;;;;5050940;28;20404;-75
2022/10/03 07:42:10;;;;;;;1.10;0.90;;;13.20;99.90;;;;;;5051301;28;20480;-78
2022/10/03 07:45:14;;;;;;;3.80;1.27;;;13.20;99.90;;;;;;5023948;28;21158;-77
2022/10/03 07:48:12;;;;;;;1.73;1.63;;;13.20;99.90;;;;;;5050704;28;20472;-75
2022/10/03 07:51:05;;;;;;;21.43;2.00;;;13.40;99.90;;;;;;5044427;28;20504;-77
2022/10/03 07:54:09;;;;;;;1.87;1.77;;;13.60;99.90;;;;;;5050292;28;20476;-77
2022/10/03 07:57:03;;;;;;;1.33;1.23;;;13.70;99.90;;;;;;5050760;28;20432;-76
2022/10/03 07:59:54;;;;;;;1.13;0.73;;;13.70;99.90;;;;;;5050708;28;20445;-78
2022/10/03 08:02:44;;;;;;;0.50;0.40;;;14.20;99.90;;;;;;5039530;28;20465;-78
2022/10/03 08:05:36;;;;;;;1.57;1.47;;;14.80;99.90;;;;;;5049437;28;20498;-75
2022/10/03 08:08:27;;;;;;;0.50;0.40;;;16.10;99.90;;;;;;5050990;28;20425;-75
2022/10/03 08:11:16;;;;;;;0.50;0.40;;;17.30;99.90;;;;;;5050606;28;20463;-76
2022/10/03 08:14:00;;;;;;;0.87;0.70;;;17.80;99.90;;;;;;5050819;28;20822;-76
2022/10/03 08:17:07;;;;;;;0.70;0.70;;;18.70;99.90;;;;;;5050550;28;20421;-76
2022/10/03 08:19:52;;;;;;;0.50;0.40;;;19.90;99.90;;;;;;4969715;28;20475;-78
2022/10/03 08:22:39;;;;;;;0.50;0.37;;;21.40;99.90;;;;;;5041455;28;20826;-76
2022/10/03 08:25:29;;;;;;;0.50;0.40;;;22.80;99.90;;;;;;5050092;28;20436;-76
2022/10/03 08:28:17;;;;;;;0.50;0.30;;;23.90;99.90;;;;;;5050145;28;20463;-78
2022/10/03 08:31:08;;;;;;;1.37;1.30;;;25.20;96.70;;;;;;5050332;28;20472;-76
2022/10/03 08:34:18;;;;;;;0.50;0.30;;;25.40;90.80;;;;;;5050628;28;20499;-76
2022/10/03 08:37:19;;;;;;;1.37;1.27;;;25.30;91.30;;;;;;4977594;28;21082;-77
2022/10/03 08:40:37;;;;;;;0.70;0.60;;;25.90;88.30;;;;;;5050641;28;20791;-77
2022/10/03 08:43:38;;;;;;;2.67;2.47;;;26.70;85.00;;;;;;5050783;28;20417;-76
2022/10/03 08:46:22;;;;;;;2.40;1.50;;;26.20;82.30;;;;;;5049818;28;20433;-76
2022/10/03 08:49:06;;;;;;;0.90;0.80;;;25.50;82.10;;;;;;5051637;28;20432;-76
2022/10/03 08:51:59;;;;;;;0.50;0.50;;;25.10;85.50;;;;;;5053996;28;20449;-76
2022/10/03 08:55:01;;;;;;;1.10;1.00;;;25.30;85.00;;;;;;5053503;28;20479;-76
2022/10/03 08:57:58;;;;;;;0.60;0.60;;;25.60;85.00;;;;;;5053903;28;20551;-76
2022/10/03 09:00:35;;;;;;;0.50;0.40;;;26.60;83.90;;;;;;5053792;28;20436;-77
2022/10/03 09:03:45;;;;;;;0.50;0.50;;;27.40;79.70;;;;;;5053726;28;20492;-77
2022/10/03 09:06:44;;;;;;;0.50;0.40;;;28.00;74.70;;;;;;5052942;28;20507;-77
2022/10/03 09:09:58;;;;;;;0.60;0.50;;;28.80;74.40;;;;;;5053694;28;20604;-77
2022/10/03 09:12:59;;;;;;;0.60;0.60;;;29.40;69.20;;;;;;5053347;28;20457;-78
2022/10/03 09:15:58;;;;;;;0.50;0.30;;;28.40;70.70;;;;;;5053087;28;20433;-77
2022/10/03 09:18:48;;;;;;;0.70;0.50;;;29.00;71.40;;;;;;5053716;28;20437;-76
2022/10/03 09:21:51;;;;;;;4.07;2.00;;;28.60;67.40;;;;;;5053099;28;20477;-77
2022/10/03 09:24:48;;;;;;;6.13;2.50;;;27.60;73.20;;;;;;5053213;28;20810;-77
2022/10/03 09:27:41;;;;;;;0.50;0.30;;;26.80;74.30;;;;;;5037275;28;20463;-77
2022/10/03 09:30:22;;;;;;;0.50;0.30;;;27.20;73.50;;;;;;5044412;28;20457;-76
2022/10/03 09:33:28;;;;;;;0.53;0.40;;;26.60;72.90;;;;;;5053174;28;20472;-76
2022/10/03 09:36:20;;;;;;;0.50;0.30;;;25.80;73.90;;;;;;5053024;28;20462;-76
2022/10/03 09:39:08;;;;;;;0.50;0.40;;;25.10;76.90;;;;;;5053206;28;20820;-77
2022/10/03 09:42:16;;;;;;;0.50;0.37;;;25.60;77.10;;;;;;5012529;28;20457;-76
2022/10/03 09:45:01;;;;;;;0.50;0.30;;;25.80;79.80;;;;;;5052546;28;20429;-76
2022/10/03 09:47:51;;;;;;;0.50;0.30;;;26.30;75.40;;;;;;5053165;28;20460;-77
2022/10/03 09:50:54;;;;;;;0.50;0.30;;;26.60;77.30;;;;;;5052680;28;20437;-79
2022/10/03 09:53:47;;;;;;;0.50;0.30;;;27.40;73.70;;;;;;5053000;28;20792;-77
2022/10/03 09:56:47;;;;;;;0.50;0.40;;;28.10;70.60;;;;;;5049292;28;20448;-77
2022/10/03 09:59:33;;;;;;;0.60;0.40;;;27.60;69.70;;;;;;5052715;28;20502;-76
2022/10/03 10:02:15;;;;;;;0.50;0.30;;;26.40;72.70;;;;;;5052945;28;20457;-77
2022/10/03 10:05:05;;;;;;;0.50;0.30;;;25.80;73.10;;;;;;5052080;28;20417;-78
2022/10/03 10:08:04;;;;;;;0.50;0.40;;;26.20;74.30;;;;;;5052627;28;20899;-77
2022/10/03 10:10:51;;;;;;;0.50;0.30;;;27.10;71.60;;;;;;5037176;28;20488;-78
2022/10/03 10:14:17;;;;;;;0.50;0.30;;;27.30;70.60;;;;;;5052283;28;20891;-76
2022/10/03 10:17:04;;;;;;;0.50;0.30;;;27.50;71.80;;;;;;5052547;28;20433;-77
2022/10/03 10:20:01;;;;;;;0.50;0.30;;;27.70;69.40;;;;;;5051608;28;20957;-77
2022/10/03 10:23:09;;;;;;;2.00;0.70;;;28.30;69.20;;;;;;5032871;28;20563;-78
2022/10/03 10:26:18;;;;;;;0.50;0.30;;;29.00;67.90;;;;;;5051899;28;20446;-76
2022/10/03 10:29:24;;;;;;;0.50;0.30;;;28.80;65.00;;;;;;5051717;28;20889;-78
2022/10/03 10:32:26;;;;;;;0.50;0.40;;;27.60;67.10;;;;;;5052408;28;20453;-76
2022/10/03 10:35:38;;;;;;;0.50;0.30;;;26.30;69.50;;;;;;5051773;28;20532;-77
2022/10/03 10:38:42;;;;;;;0.87;0.70;;;23.30;76.10;;;;;;5052306;28;20794;-76
2022/10/03 10:41:47;;;;;;;0.50;0.40;;;22.10;82.00;;;;;;5020002;28;20989;-77
2022/10/03 10:44:55;;;;;;;0.50;0.30;;;22.50;88.70;;;;;;5044808;28;20453;-76
2022/10/03 10:48:15;;;;;;;0.50;0.30;;;23.20;88.40;;;;;;5051912;28;20953;-74
2022/10/03 10:51:14;;;;;;;0.50;0.30;;;24.20;84.40;;;;;;5051741;28;20476;-76
2022/10/03 10:54:23;;;;;;;0.50;0.30;;;25.10;77.00;;;;;;5051620;28;20472;-77
2022/10/03 10:57:25;;;;;;;0.50;0.30;;;25.20;77.90;;;;;;5051583;28;20462;-77
2022/10/03 11:00:22;;;;;;;0.50;0.30;;;24.30;80.20;;;;;;4970523;28;20476;-77
2022/10/03 11:03:46;;;;;;;0.50;0.30;;;24.20;79.10;;;;;;5050450;28;20547;-79
2022/10/03 11:06:56;;;;;;;0.50;0.40;;;24.30;84.20;;;;;;5051303;28;20440;-77
2022/10/03 11:09:46;;;;;;;0.50;0.30;;;23.80;79.50;;;;;;5051325;28;20426;-77
2022/10/03 11:13:05;;;;;;;0.50;0.30;;;24.30;78.60;;;;;;5050910;28;20457;-77
2022/10/03 11:16:10;;;;;;;0.50;0.30;;;24.40;81.50;;;;;;4969485;28;20447;-77
2022/10/03 11:19:27;;;;;;;0.50;0.37;;;23.70;79.40;;;;;;5040277;28;20969;-76
2022/10/03 11:22:44;;;;;;;0.50;0.40;;;24.10;81.10;;;;;;5051360;28;20471;-80
2022/10/03 11:25:53;;;;;;;0.50;0.30;;;24.20;79.60;;;;;;5050915;28;20437;-76
2022/10/03 11:28:58;;;;;;;0.50;0.40;;;24.00;79.70;;;;;;5051027;28;20949;-77
2022/10/03 11:32:01;;;;;;;0.50;0.30;;;23.40;80.10;;;;;;5051154;28;20795;-77
2022/10/03 11:35:07;;;;;;;0.50;0.30;;;22.70;83.30;;;;;;5050647;28;20484;-75
2022/10/03 11:37:42;;;;;;;0.50;0.30;;;23.30;84.60;;;;;;5051135;28;20443;-76
2022/10/03 11:40:30;;;;;;;0.50;0.30;;;23.90;84.00;;;;;;5050717;28;20425;-76
2022/10/03 11:43:23;;;;;;;0.50;0.30;;;24.80;82.40;;;;;;5050886;28;20436;-76
2022/10/03 11:45:54;;;;;;;0.50;0.30;;;25.20;78.00;;;;;;5050352;28;20437;-76
2022/10/03 11:48:38;;;;;;;0.50;0.30;;;25.10;73.00;;;;;;5050958;28;20441;-76
2022/10/03 11:51:09;;;;;;;0.50;0.40;;;24.00;78.00;;;;;;5050589;28;20519;-76
2022/10/03 11:53:42;;;;;;;0.50;0.30;;;23.60;79.90;;;;;;5050557;28;20471;-77
2022/10/03 11:56:20;;;;;;;0.50;0.30;;;23.40;82.10;;;;;;5050529;28;20476;-76
2022/10/03 11:58:59;;;;;;;0.50;0.30;;;23.30;81.60;;;;;;5051234;28;20508;-76
2022/10/03 12:01:36;;;;;;;0.50;0.40;;;23.50;79.00;;;;;;5050815;28;20583;-76
2022/10/03 12:04:11;;;;;;;0.50;0.30;;;23.20;75.40;;;;;;5050811;28;20779;-79
2022/10/03 12:09:55;;;;;;;0.50;0.30;;;22.60;82.60;;;;;;5050681;28;20901;-75
2022/10/03 12:12:32;;;;;;;0.70;0.40;;;21.80;85.20;;;;;;5050515;28;20539;-76
2022/10/03 12:15:05;;;;;;;0.50;0.33;;;21.30;90.40;;;;;;5050295;28;20518;-75
2022/10/03 12:17:35;;;;;;;0.50;0.40;;;20.90;94.90;;;;;;5050606;28;20424;-75
2022/10/03 12:20:17;;;;;;;0.50;0.30;;;20.70;96.00;;;;;;5050312;28;20982;-78
2022/10/03 12:22:51;;;;;;;0.50;0.40;;;21.00;97.90;;;;;;5050344;28;20441;-77
2022/10/03 12:25:22;;;;;;;0.50;0.40;;;21.60;93.70;;;;;;5054129;28;20439;-75
2022/10/03 12:28:10;;;;;;;0.50;0.30;;;21.80;95.10;;;;;;5054392;28;20449;-76
2022/10/03 12:30:42;;;;;;;0.50;0.37;;;22.40;95.80;;;;;;5054297;28;20483;-76
2022/10/03 12:33:28;;;;;;;0.50;0.40;;;23.20;87.50;;;;;;5054458;28;20436;-76
2022/10/03 12:36:03;;;;;;;0.50;0.30;;;23.70;84.20;;;;;;5054186;28;20684;-77
2022/10/03 12:38:42;;;;;;;0.50;0.30;;;23.90;81.00;;;;;;5054020;28;20993;-76
2022/10/03 12:41:42;;;;;;;0.50;0.30;;;24.30;80.90;;;;;;5054358;28;20826;-77
2022/10/03 12:44:22;;;;;;;0.50;0.30;;;24.20;80.30;;;;;;5054062;28;20439;-75
2022/10/03 12:46:57;;;;;;;0.50;0.30;;;24.20;78.80;;;;;;5053726;28;20421;-76
2022/10/03 12:49:43;;;;;;;0.50;0.30;;;24.30;77.60;;;;;;5053974;28;20527;-76
2022/10/03 12:52:20;;;;;;;0.50;0.30;;;24.10;79.40;;;;;;5054214;28;20457;-77
2022/10/03 12:54:54;;;;;;;0.50;0.30;;;23.90;82.80;;;;;;5053514;28;20464;-76
2022/10/03 12:57:50;;;;;;;0.50;0.30;;;24.00;83.10;;;;;;5053980;28;20544;-76
2022/10/03 13:00:22;;;;;;;0.50;0.30;;;25.60;74.70;;;;;;5053471;28;20459;-76
2022/10/03 13:03:12;;;;;;;0.50;0.30;;;26.60;74.50;;;;;;5053973;28;20449;-76
2022/10/03 13:05:56;;;;;;;0.50;0.30;;;27.10;71.40;;;;;;5052932;28;20891;-76
2022/10/03 13:08:41;;;;;;;0.50;0.30;;;27.20;66.10;;;;;;5053696;28;20993;-78
2022/10/03 13:11:24;;;;;;;0.50;0.30;;;27.40;66.80;;;;;;5053142;28;21001;-76
2022/10/03 13:14:05;;;;;;;0.50;0.30;;;28.10;64.30;;;;;;5053497;28;20465;-77
2022/10/03 13:16:36;;;;;;;0.50;0.30;;;28.80;64.20;;;;;;5053598;28;20536;-76
2022/10/03 13:19:09;;;;;;;2.60;0.80;;;28.40;61.80;;;;;;5053810;28;20460;-76
2022/10/03 13:22:02;;;;;;;0.50;0.30;;;27.60;64.40;;;;;;5053248;28;20457;-75
2022/10/03 13:24:36;;;;;;;0.50;0.40;;;26.40;66.80;;;;;;5053100;28;20491;-75
2022/10/03 13:27:17;;;;;;;0.50;0.30;;;25.80;68.40;;;;;;5053504;28;20447;-76
2022/10/03 13:29:47;;;;;;;0.50;0.30;;;26.20;71.00;;;;;;5053526;28;20425;-77
2022/10/03 13:32:31;;;;;;;0.50;0.40;;;26.20;69.60;;;;;;5052878;28;20822;-75
2022/10/03 13:38:45;;;;;;;0.50;0.30;;;24.50;68.50;;;;;;5019203;28;20437;-77
2022/10/03 13:41:35;;;;;;;0.50;0.30;;;23.70;70.80;;;;;;5053221;28;20890;-77
2022/10/03 13:44:08;;;;;;;0.50;0.30;;;23.20;72.60;;;;;;5053240;28;20430;-78
2022/10/03 13:46:44;;;;;;;0.50;0.30;;;22.70;72.80;;;;;;5052482;28;20444;-76
2022/10/03 13:49:18;;;;;;;0.50;0.40;;;22.50;74.10;;;;;;5053069;28;20478;-75
2022/10/03 13:51:53;;;;;;;0.50;0.30;;;22.70;77.20;;;;;;5053087;28;20468;-75
2022/10/03 13:54:34;;;;;;;0.50;0.30;;;23.50;78.70;;;;;;5052827;28;20472;-78
2022/10/03 13:57:14;;;;;;;0.50;0.30;;;24.30;75.20;;;;;;5052674;28;20431;-78
2022/10/03 13:59:52;;;;;;;0.50;0.30;;;25.60;73.10;;;;;;5052879;28;20470;-76
2022/10/03 14:02:41;;;;;;;0.50;0.30;;;26.80;73.00;;;;;;5052841;28;20461;-76
2022/10/03 14:05:34;;;;;;;0.50;0.30;;;27.60;68.40;;;;;;5052286;28;20433;-75
2022/10/03 14:08:11;;;;;;;0.60;0.50;;;28.10;66.80;;;;;;5049402;28;20951;-77
2022/10/03 14:11:01;;;;;;;0.50;0.30;;;28.30;62.50;;;;;;5052645;28;20550;-75
2022/10/03 14:13:37;;;;;;;0.50;0.40;;;27.60;63.90;;;;;;5052495;28;20487;-75
2022/10/03 14:16:15;;;;;;;0.50;0.33;;;25.60;65.60;;;;;;5051730;28;20443;-78
2022/10/03 14:18:50;;;;;;;0.50;0.30;;;24.50;70.50;;;;;;5052749;28;20471;-75
2022/10/03 14:21:55;;;;;;;0.50;0.50;;;23.60;71.70;;;;;;5052250;28;20995;-74
2022/10/03 14:24:37;;;;;;;0.50;0.40;;;22.70;76.80;;;;;;5051196;28;20809;-76
2022/10/03 14:27:11;;;;;;;0.50;0.30;;;22.50;79.50;;;;;;5051931;28;20488;-76
2022/10/03 14:29:52;;;;;;;0.50;0.30;;;22.30;81.90;;;;;;5052366;28;20440;-76
2022/10/03 14:32:26;;;;;;;0.50;0.30;;;22.10;81.10;;;;;;5052161;28;20465;-74
2022/10/03 14:35:03;;;;;;;0.50;0.40;;;21.80;83.70;;;;;;5051813;28;20461;-75
2022/10/03 14:37:40;;;;;;;0.50;0.30;;;21.70;89.70;;;;;;5052286;28;20443;-76
2022/10/03 14:40:17;;;;;;;0.50;0.30;;;21.80;85.00;;;;;;5052065;28;20431;-76
2022/10/03 14:42:53;;;;;;;0.50;0.30;;;22.30;87.80;;;;;;5052045;28;20459;-76
2022/10/03 14:45:28;;;;;;;0.50;0.30;;;23.00;82.70;;;;;;5051530;28;20433;-73
2022/10/03 14:48:00;;;;;;;0.50;0.30;;;23.80;80.80;;;;;;5051389;28;20490;-76
2022/10/03 14:50:30;;;;;;;0.50;0.30;;;23.80;80.00;;;;;;5051693;28;20471;-76
2022/10/03 14:53:02;;;;;;;0.50;0.40;;;23.20;78.30;;;;;;5052012;28;20437;-78